sensor_id;sensor_type;location;lat;lon;timestamp;pressure;altitude;pressure_sealevel;temperature;humidity
21153;BME280;10734;44.792;20.482;2023-05-29T00:00:52;99836.97;;;15.79;95.99
21153;BME280;10734;44.792;20.482;2023-05-29T00:03:20;99834.50;;;15.76;96.31
21153;BME280;10734;44.792;20.482;2023-05-29T00:05:47;99825.75;;;15.72;96.53
21153;BME280;10734;44.792;20.482;2023-05-29T00:08:15;99831.31;;;15.71;96.97
21153;BME280;10734;44.792;20.482;2023-05-29T00:10:42;99834.25;;;15.68;97.25
21153;BME280;10734;44.792;20.482;2023-05-29T00:13:09;99837.97;;;15.67;97.66
21153;BME280;10734;44.792;20.482;2023-05-29T00:15:36;99831.91;;;15.63;97.64
21153;BME280;10734;44.792;20.482;2023-05-29T00:18:02;99836.34;;;15.64;97.55
21153;BME280;10734;44.792;20.482;2023-05-29T00:20:29;99829.19;;;15.63;97.88
21153;BME280;10734;44.792;20.482;2023-05-29T00:22:56;99835.59;;;15.62;97.52
21153;BME280;10734;44.792;20.482;2023-05-29T00:25:23;99825.63;;;15.63;97.70
21153;BME280;10734;44.792;20.482;2023-05-29T00:27:49;99842.00;;;15.61;97.24
21153;BME280;10734;44.792;20.482;2023-05-29T00:30:16;99830.16;;;15.62;97.17
21153;BME280;10734;44.792;20.482;2023-05-29T00:32:43;99832.00;;;15.61;97.60
21153;BME280;10734;44.792;20.482;2023-05-29T00:35:10;99828.34;;;15.63;97.31
21153;BME280;10734;44.792;20.482;2023-05-29T00:37:37;99822.91;;;15.63;97.47
21153;BME280;10734;44.792;20.482;2023-05-29T00:40:04;99827.34;;;15.64;96.85
21153;BME280;10734;44.792;20.482;2023-05-29T00:42:31;99823.75;;;15.63;96.17
21153;BME280;10734;44.792;20.482;2023-05-29T00:44:58;99828.19;;;15.64;95.74
21153;BME280;10734;44.792;20.482;2023-05-29T00:47:25;99830.75;;;15.66;95.48
21153;BME280;10734;44.792;20.482;2023-05-29T00:49:53;99827.19;;;15.65;95.30
21153;BME280;10734;44.792;20.482;2023-05-29T00:52:23;99829.91;;;15.65;95.20
21153;BME280;10734;44.792;20.482;2023-05-29T00:54:51;99829.28;;;15.61;95.42
21153;BME280;10734;44.792;20.482;2023-05-29T00:57:18;99833.88;;;15.61;95.31
21153;BME280;10734;44.792;20.482;2023-05-29T00:59:46;99837.81;;;15.57;95.68
21153;BME280;10734;44.792;20.482;2023-05-29T01:02:15;99841.63;;;15.54;95.80
21153;BME280;10734;44.792;20.482;2023-05-29T01:04:44;99840.03;;;15.52;95.91
21153;BME280;10734;44.792;20.482;2023-05-29T01:07:12;99838.44;;;15.49;96.03
21153;BME280;10734;44.792;20.482;2023-05-29T01:09:41;99848.69;;;15.46;96.27
21153;BME280;10734;44.792;20.482;2023-05-29T01:28:27;99839.66;;;15.34;97.09
21153;BME280;10734;44.792;20.482;2023-05-29T01:30:56;99834.38;;;15.32;97.05
21153;BME280;10734;44.792;20.482;2023-05-29T01:33:23;99832.63;;;15.31;96.98
21153;BME280;10734;44.792;20.482;2023-05-29T01:35:50;99837.94;;;15.33;97.21
21153;BME280;10734;44.792;20.482;2023-05-29T01:38:17;99840.66;;;15.33;97.10
21153;BME280;10734;44.792;20.482;2023-05-29T01:40:44;99842.13;;;15.37;96.96
21153;BME280;10734;44.792;20.482;2023-05-29T01:43:12;99841.03;;;15.40;97.15
21153;BME280;10734;44.792;20.482;2023-05-29T01:45:39;99831.88;;;15.41;96.89
21153;BME280;10734;44.792;20.482;2023-05-29T01:48:06;99831.88;;;15.41;97.06
21153;BME280;10734;44.792;20.482;2023-05-29T01:50:34;99833.75;;;15.40;97.03
21153;BME280;10734;44.792;20.482;2023-05-29T01:53:01;99836.47;;;15.40;96.68
21153;BME280;10734;44.792;20.482;2023-05-29T01:55:28;99825.84;;;15.37;97.10
21153;BME280;10734;44.792;20.482;2023-05-29T01:57:55;99819.41;;;15.38;97.03
21153;BME280;10734;44.792;20.482;2023-05-29T02:00:22;99822.13;;;15.38;96.93
21153;BME280;10734;44.792;20.482;2023-05-29T02:02:50;99822.88;;;15.40;96.83
21153;BME280;10734;44.792;20.482;2023-05-29T02:05:17;99818.31;;;15.41;96.75
21153;BME280;10734;44.792;20.482;2023-05-29T02:07:44;99819.31;;;15.40;97.13
21153;BME280;10734;44.792;20.482;2023-05-29T02:10:11;99813.13;;;15.37;97.59
21153;BME280;10734;44.792;20.482;2023-05-29T02:12:37;99823.50;;;15.32;98.25
21153;BME280;10734;44.792;20.482;2023-05-29T02:15:04;99830.66;;;15.33;98.61
21153;BME280;10734;44.792;20.482;2023-05-29T02:17:32;99826.84;;;15.36;98.21
21153;BME280;10734;44.792;20.482;2023-05-29T02:19:59;99814.00;;;15.38;98.18
21153;BME280;10734;44.792;20.482;2023-05-29T02:22:26;99826.59;;;15.39;98.51
21153;BME280;10734;44.792;20.482;2023-05-29T02:24:53;99829.41;;;15.37;98.67
21153;BME280;10734;44.792;20.482;2023-05-29T02:27:19;99824.38;;;15.33;99.35
21153;BME280;10734;44.792;20.482;2023-05-29T02:29:46;99823.50;;;15.32;99.18
21153;BME280;10734;44.792;20.482;2023-05-29T02:32:13;99834.22;;;15.34;99.29
21153;BME280;10734;44.792;20.482;2023-05-29T02:34:40;99832.25;;;15.36;98.68
21153;BME280;10734;44.792;20.482;2023-05-29T02:37:06;99825.97;;;15.35;98.54
21153;BME280;10734;44.792;20.482;2023-05-29T02:39:33;99828.81;;;15.34;99.12
21153;BME280;10734;44.792;20.482;2023-05-29T02:42:00;99826.47;;;15.29;99.58
21153;BME280;10734;44.792;20.482;2023-05-29T02:44:27;99828.06;;;15.32;99.20
21153;BME280;10734;44.792;20.482;2023-05-29T02:46:53;99831.75;;;15.31;100.00
21153;BME280;10734;44.792;20.482;2023-05-29T02:49:20;99829.78;;;15.33;99.15
21153;BME280;10734;44.792;20.482;2023-05-29T02:51:47;99828.19;;;15.30;99.76
21153;BME280;10734;44.792;20.482;2023-05-29T02:54:13;99821.91;;;15.30;99.77
21153;BME280;10734;44.792;20.482;2023-05-29T02:56:40;99817.31;;;15.30;100.00
21153;BME280;10734;44.792;20.482;2023-05-29T02:59:07;99820.28;;;15.27;100.00
21153;BME280;10734;44.792;20.482;2023-05-29T03:01:33;99821.38;;;15.25;100.00
21153;BME280;10734;44.792;20.482;2023-05-29T03:04:00;99820.28;;;15.27;100.00
21153;BME280;10734;44.792;20.482;2023-05-29T03:06:27;99817.72;;;15.26;100.00
21153;BME280;10734;44.792;20.482;2023-05-29T03:08:54;99832.75;;;15.30;100.00
21153;BME280;10734;44.792;20.482;2023-05-29T03:11:21;99829.19;;;15.29;100.00
21153;BME280;10734;44.792;20.482;2023-05-29T03:13:49;99845.06;;;15.34;100.00
21153;BME280;10734;44.792;20.482;2023-05-29T03:16:17;99841.50;;;15.33;100.00
21153;BME280;10734;44.792;20.482;2023-05-29T03:18:43;99846.69;;;15.36;100.00
21153;BME280;10734;44.792;20.482;2023-05-29T03:21:10;99850.03;;;15.40;100.00
21153;BME280;10734;44.792;20.482;2023-05-29T03:23:37;99855.94;;;15.45;100.00
21153;BME280;10734;44.792;20.482;2023-05-29T03:26:04;99852.13;;;15.48;100.00
21153;BME280;10734;44.792;20.482;2023-05-29T03:28:32;99850.78;;;15.53;99.73
21153;BME280;10734;44.792;20.482;2023-05-29T03:30:58;99852.13;;;15.59;99.62
21153;BME280;10734;44.792;20.482;2023-05-29T03:33:25;99853.72;;;15.61;99.77
21153;BME280;10734;44.792;20.482;2023-05-29T03:35:52;99850.75;;;15.65;99.42
21153;BME280;10734;44.792;20.482;2023-05-29T03:38:19;99853.28;;;15.68;99.10
21153;BME280;10734;44.792;20.482;2023-05-29T03:40:45;99857.47;;;15.72;98.70
21153;BME280;10734;44.792;20.482;2023-05-29T03:43:12;99855.25;;;15.77;97.80
21153;BME280;10734;44.792;20.482;2023-05-29T03:45:39;99854.16;;;15.79;96.81
21153;BME280;10734;44.792;20.482;2023-05-29T03:48:06;99856.59;;;15.82;95.57
21153;BME280;10734;44.792;20.482;2023-05-29T03:50:32;99855.38;;;15.87;95.50
21153;BME280;10734;44.792;20.482;2023-05-29T03:52:59;99855.13;;;15.90;95.25
21153;BME280;10734;44.792;20.482;2023-05-29T03:55:26;99858.44;;;15.93;94.81
21153;BME280;10734;44.792;20.482;2023-05-29T03:57:54;99858.06;;;15.98;94.69
21153;BME280;10734;44.792;20.482;2023-05-29T04:00:22;99856.81;;;16.02;94.13
21153;BME280;10734;44.792;20.482;2023-05-29T04:02:48;99860.03;;;16.07;94.04
21153;BME280;10734;44.792;20.482;2023-05-29T04:05:16;99858.53;;;16.14;94.01
21153;BME280;10734;44.792;20.482;2023-05-29T04:07:42;99864.56;;;16.18;93.84
21153;BME280;10734;44.792;20.482;2023-05-29T04:10:09;99865.91;;;16.23;93.63
21153;BME280;10734;44.792;20.482;2023-05-29T04:12:36;99877.78;;;16.22;93.19
21153;BME280;10734;44.792;20.482;2023-05-29T04:15:03;99875.19;;;16.21;93.36
21153;BME280;10734;44.792;20.482;2023-05-29T04:17:30;99881.50;;;16.21;93.32
21153;BME280;10734;44.792;20.482;2023-05-29T04:19:57;99876.91;;;16.22;93.42
21153;BME280;10734;44.792;20.482;2023-05-29T04:22:24;99875.19;;;16.21;93.41
21153;BME280;10734;44.792;20.482;2023-05-29T04:24:51;99876.06;;;16.21;93.05
21153;BME280;10734;44.792;20.482;2023-05-29T04:27:17;99875.81;;;16.24;93.22
21153;BME280;10734;44.792;20.482;2023-05-29T04:29:44;99884.56;;;16.28;93.52
21153;BME280;10734;44.792;20.482;2023-05-29T04:32:11;99877.88;;;16.32;93.06
21153;BME280;10734;44.792;20.482;2023-05-29T04:34:39;99877.47;;;16.37;92.62
21153;BME280;10734;44.792;20.482;2023-05-29T04:37:06;99881.94;;;16.38;92.26
21153;BME280;10734;44.792;20.482;2023-05-29T04:39:32;99887.25;;;16.39;92.18
21153;BME280;10734;44.792;20.482;2023-05-29T04:41:59;99879.09;;;16.39;91.99
21153;BME280;10734;44.792;20.482;2023-05-29T04:44:27;99890.56;;;16.43;91.70
21153;BME280;10734;44.792;20.482;2023-05-29T04:46:55;99883.78;;;16.48;91.90
21153;BME280;10734;44.792;20.482;2023-05-29T04:49:24;99880.53;;;16.54;92.02
21153;BME280;10734;44.792;20.482;2023-05-29T04:51:51;99893.00;;;16.57;92.41
21153;BME280;10734;44.792;20.482;2023-05-29T04:54:19;99899.94;;;16.61;92.43
21153;BME280;10734;44.792;20.482;2023-05-29T04:56:46;99891.63;;;16.63;90.99
21153;BME280;10734;44.792;20.482;2023-05-29T04:59:13;99902.84;;;16.69;90.93
21153;BME280;10734;44.792;20.482;2023-05-29T05:01:39;99903.97;;;16.78;90.81
21153;BME280;10734;44.792;20.482;2023-05-29T05:04:09;99901.56;;;16.85;89.82
21153;BME280;10734;44.792;20.482;2023-05-29T05:06:37;99901.19;;;16.89;90.18
21153;BME280;10734;44.792;20.482;2023-05-29T05:09:04;99904.53;;;16.93;90.43
21153;BME280;10734;44.792;20.482;2023-05-29T05:11:31;99907.69;;;16.98;90.12
21153;BME280;10734;44.792;20.482;2023-05-29T05:14:29;99906.59;;;17.00;89.95
21153;BME280;10734;44.792;20.482;2023-05-29T05:16:56;99915.59;;;17.01;89.94
21153;BME280;10734;44.792;20.482;2023-05-29T05:19:23;99905.88;;;16.98;87.31
21153;BME280;10734;44.792;20.482;2023-05-29T05:21:49;99907.19;;;17.04;87.54
21153;BME280;10734;44.792;20.482;2023-05-29T05:24:18;99909.03;;;17.03;88.31
21153;BME280;10734;44.792;20.482;2023-05-29T05:26:45;99916.59;;;17.00;87.71
21153;BME280;10734;44.792;20.482;2023-05-29T05:29:11;99920.13;;;17.12;88.05
21153;BME280;10734;44.792;20.482;2023-05-29T05:31:38;99915.91;;;17.19;87.05
21153;BME280;10734;44.792;20.482;2023-05-29T05:34:05;99912.19;;;17.20;87.27
21153;BME280;10734;44.792;20.482;2023-05-29T05:36:32;99921.13;;;17.32;87.11
21153;BME280;10734;44.792;20.482;2023-05-29T05:38:59;99909.13;;;17.34;87.03
21153;BME280;10734;44.792;20.482;2023-05-29T05:41:26;99909.00;;;17.36;86.48
21153;BME280;10734;44.792;20.482;2023-05-29T05:43:53;99909.38;;;17.31;85.94
21153;BME280;10734;44.792;20.482;2023-05-29T05:46:19;99912.03;;;17.21;85.87
21153;BME280;10734;44.792;20.482;2023-05-29T05:48:46;99901.97;;;17.33;85.83
21153;BME280;10734;44.792;20.482;2023-05-29T05:51:13;99909.19;;;17.44;85.29
21153;BME280;10734;44.792;20.482;2023-05-29T05:53:40;99910.22;;;17.53;84.75
21153;BME280;10734;44.792;20.482;2023-05-29T05:56:07;99913.59;;;17.66;83.59
21153;BME280;10734;44.792;20.482;2023-05-29T05:58:33;99907.84;;;17.80;83.19
21153;BME280;10734;44.792;20.482;2023-05-29T06:01:00;99907.75;;;17.91;82.88
21153;BME280;10734;44.792;20.482;2023-05-29T06:03:27;99904.06;;;18.02;81.65
21153;BME280;10734;44.792;20.482;2023-05-29T06:05:54;99916.44;;;18.16;81.77
21153;BME280;10734;44.792;20.482;2023-05-29T06:08:21;99924.97;;;18.32;81.96
21153;BME280;10734;44.792;20.482;2023-05-29T06:10:48;99920.25;;;18.44;81.18
21153;BME280;10734;44.792;20.482;2023-05-29T06:13:15;99922.59;;;18.58;81.30
21153;BME280;10734;44.792;20.482;2023-05-29T06:15:43;99919.84;;;18.68;79.57
21153;BME280;10734;44.792;20.482;2023-05-29T06:18:10;99921.34;;;18.72;78.97
21153;BME280;10734;44.792;20.482;2023-05-29T06:20:38;99925.53;;;18.86;78.61
21153;BME280;10734;44.792;20.482;2023-05-29T06:23:05;99928.56;;;18.93;77.56
21153;BME280;10734;44.792;20.482;2023-05-29T06:25:32;99926.53;;;18.95;78.04
21153;BME280;10734;44.792;20.482;2023-05-29T06:28:00;99924.38;;;19.08;77.49
21153;BME280;10734;44.792;20.482;2023-05-29T06:30:27;99930.00;;;19.16;76.84
21153;BME280;10734;44.792;20.482;2023-05-29T06:32:54;99935.41;;;19.35;76.44
21153;BME280;10734;44.792;20.482;2023-05-29T06:35:21;99934.56;;;19.45;75.00
21153;BME280;10734;44.792;20.482;2023-05-29T06:37:48;99936.44;;;19.34;74.38
21153;BME280;10734;44.792;20.482;2023-05-29T06:40:15;99939.16;;;19.34;75.24
21153;BME280;10734;44.792;20.482;2023-05-29T06:42:44;99938.03;;;19.27;74.94
21153;BME280;10734;44.792;20.482;2023-05-29T06:45:11;99941.88;;;19.54;74.65
21153;BME280;10734;44.792;20.482;2023-05-29T06:47:44;99942.84;;;19.62;73.55
21153;BME280;10734;44.792;20.482;2023-05-29T06:50:10;99936.34;;;19.83;73.12
21153;BME280;10734;44.792;20.482;2023-05-29T06:52:37;99940.59;;;20.05;72.90
21153;BME280;10734;44.792;20.482;2023-05-29T06:55:05;99941.66;;;19.94;71.20
21153;BME280;10734;44.792;20.482;2023-05-29T06:57:31;99941.13;;;19.81;70.23
21153;BME280;10734;44.792;20.482;2023-05-29T06:59:58;99942.34;;;19.96;71.20
21153;BME280;10734;44.792;20.482;2023-05-29T07:02:25;99945.47;;;20.11;70.30
21153;BME280;10734;44.792;20.482;2023-05-29T07:04:52;99947.13;;;20.31;70.24
21153;BME280;10734;44.792;20.482;2023-05-29T07:07:18;99950.75;;;20.50;69.06
21153;BME280;10734;44.792;20.482;2023-05-29T07:09:45;99947.47;;;20.74;68.96
21153;BME280;10734;44.792;20.482;2023-05-29T07:12:12;99949.88;;;20.59;68.22
21153;BME280;10734;44.792;20.482;2023-05-29T07:14:39;99952.69;;;20.67;68.75
21153;BME280;10734;44.792;20.482;2023-05-29T07:17:05;99952.56;;;20.87;68.32
21153;BME280;10734;44.792;20.482;2023-05-29T07:19:32;99952.94;;;20.74;67.89
21153;BME280;10734;44.792;20.482;2023-05-29T07:22:00;99955.84;;;20.90;67.69
21153;BME280;10734;44.792;20.482;2023-05-29T07:24:27;99952.88;;;20.84;68.22
21153;BME280;10734;44.792;20.482;2023-05-29T07:26:53;99963.81;;;21.19;68.22
21153;BME280;10734;44.792;20.482;2023-05-29T07:29:22;99961.41;;;20.98;67.19
21153;BME280;10734;44.792;20.482;2023-05-29T07:31:50;99972.69;;;21.31;67.88
21153;BME280;10734;44.792;20.482;2023-05-29T07:34:17;99967.66;;;21.62;66.52
21153;BME280;10734;44.792;20.482;2023-05-29T07:36:57;99968.53;;;21.89;66.08
21153;BME280;10734;44.792;20.482;2023-05-29T07:39:24;99964.25;;;22.38;65.63
21153;BME280;10734;44.792;20.482;2023-05-29T07:41:51;99957.22;;;22.44;65.36
21153;BME280;10734;44.792;20.482;2023-05-29T07:44:19;99966.06;;;22.72;64.53
21153;BME280;10734;44.792;20.482;2023-05-29T07:46:45;99968.50;;;22.91;63.16
21153;BME280;10734;44.792;20.482;2023-05-29T07:49:12;99972.19;;;23.00;63.33
21153;BME280;10734;44.792;20.482;2023-05-29T07:51:39;99959.50;;;23.32;62.41
21153;BME280;10734;44.792;20.482;2023-05-29T07:54:06;99970.34;;;23.66;62.37
21153;BME280;10734;44.792;20.482;2023-05-29T07:56:33;99963.28;;;23.96;61.03
21153;BME280;10734;44.792;20.482;2023-05-29T07:59:00;99956.91;;;24.12;59.73
21153;BME280;10734;44.792;20.482;2023-05-29T08:01:27;99956.78;;;24.45;60.25
21153;BME280;10734;44.792;20.482;2023-05-29T08:03:54;99952.81;;;24.87;58.71
21153;BME280;10734;44.792;20.482;2023-05-29T08:06:21;99957.69;;;25.08;57.29
21153;BME280;10734;44.792;20.482;2023-05-29T08:08:48;99959.38;;;25.09;56.64
21153;BME280;10734;44.792;20.482;2023-05-29T08:11:15;99956.19;;;25.28;56.66
21153;BME280;10734;44.792;20.482;2023-05-29T08:13:42;99961.97;;;25.33;55.92
21153;BME280;10734;44.792;20.482;2023-05-29T08:16:08;99965.13;;;24.99;56.53
21153;BME280;10734;44.792;20.482;2023-05-29T08:18:35;99962.84;;;24.32;57.76
21153;BME280;10734;44.792;20.482;2023-05-29T08:21:03;99958.06;;;24.18;57.75
21153;BME280;10734;44.792;20.482;2023-05-29T08:23:30;99958.25;;;24.08;58.99
21153;BME280;10734;44.792;20.482;2023-05-29T08:26:01;99954.69;;;24.55;58.10
21153;BME280;10734;44.792;20.482;2023-05-29T08:28:29;99953.66;;;24.56;57.26
21153;BME280;10734;44.792;20.482;2023-05-29T08:30:56;99951.72;;;24.65;57.38
21153;BME280;10734;44.792;20.482;2023-05-29T08:33:23;99961.09;;;24.78;56.87
21153;BME280;10734;44.792;20.482;2023-05-29T08:35:49;99962.97;;;25.17;55.52
21153;BME280;10734;44.792;20.482;2023-05-29T08:38:16;99965.63;;;24.71;56.13
21153;BME280;10734;44.792;20.482;2023-05-29T08:40:43;99958.56;;;24.77;55.76
21153;BME280;10734;44.792;20.482;2023-05-29T08:43:14;99953.19;;;25.07;54.43
21153;BME280;10734;44.792;20.482;2023-05-29T08:45:43;99954.41;;;24.42;56.21
21153;BME280;10734;44.792;20.482;2023-05-29T08:48:13;99954.59;;;24.24;57.35
21153;BME280;10734;44.792;20.482;2023-05-29T08:50:43;99953.19;;;24.36;56.70
21153;BME280;10734;44.792;20.482;2023-05-29T08:53:15;99954.66;;;24.07;57.70
21153;BME280;10734;44.792;20.482;2023-05-29T08:55:42;99951.34;;;24.20;56.91
21153;BME280;10734;44.792;20.482;2023-05-29T08:58:10;99956.59;;;24.86;56.09
21153;BME280;10734;44.792;20.482;2023-05-29T09:00:38;99959.66;;;25.22;54.61
21153;BME280;10734;44.792;20.482;2023-05-29T09:03:05;99952.28;;;25.37;54.47
21153;BME280;10734;44.792;20.482;2023-05-29T09:05:32;99955.25;;;25.97;52.75
21153;BME280;10734;44.792;20.482;2023-05-29T09:07:59;99947.34;;;26.08;52.98
21153;BME280;10734;44.792;20.482;2023-05-29T09:10:26;99941.19;;;26.36;52.62
21153;BME280;10734;44.792;20.482;2023-05-29T09:12:53;99948.13;;;26.17;53.23
21153;BME280;10734;44.792;20.482;2023-05-29T09:15:22;99943.38;;;26.55;52.70
21153;BME280;10734;44.792;20.482;2023-05-29T09:17:53;99946.72;;;26.36;51.20
21153;BME280;10734;44.792;20.482;2023-05-29T09:20:21;99944.38;;;26.69;51.11
21153;BME280;10734;44.792;20.482;2023-05-29T09:22:58;99949.72;;;27.22;49.96
21153;BME280;10734;44.792;20.482;2023-05-29T09:25:28;99934.03;;;27.29;49.02
21153;BME280;10734;44.792;20.482;2023-05-29T09:28:04;99939.09;;;27.04;47.47
21153;BME280;10734;44.792;20.482;2023-05-29T09:30:40;99925.09;;;26.39;49.25
21153;BME280;10734;44.792;20.482;2023-05-29T09:33:10;99928.25;;;26.36;49.90
21153;BME280;10734;44.792;20.482;2023-05-29T09:35:43;99914.44;;;26.36;49.20
21153;BME280;10734;44.792;20.482;2023-05-29T09:38:11;99911.94;;;26.93;49.04
21153;BME280;10734;44.792;20.482;2023-05-29T09:41:03;99919.19;;;27.58;46.52
21153;BME280;10734;44.792;20.482;2023-05-29T09:43:31;99921.13;;;27.36;45.80
21153;BME280;10734;44.792;20.482;2023-05-29T09:46:00;99917.41;;;27.22;45.56
21153;BME280;10734;44.792;20.482;2023-05-29T09:48:29;99916.34;;;27.73;45.38
21153;BME280;10734;44.792;20.482;2023-05-29T09:50:56;99918.16;;;28.50;43.47
21153;BME280;10734;44.792;20.482;2023-05-29T09:53:25;99902.38;;;28.44;43.44
21153;BME280;10734;44.792;20.482;2023-05-29T09:55:54;99913.91;;;28.13;41.22
21153;BME280;10734;44.792;20.482;2023-05-29T09:58:22;99915.03;;;28.32;41.41
21153;BME280;10734;44.792;20.482;2023-05-29T10:00:50;99912.25;;;28.66;40.48
21153;BME280;10734;44.792;20.482;2023-05-29T10:03:18;99907.88;;;28.92;40.86
21153;BME280;10734;44.792;20.482;2023-05-29T10:05:49;99902.44;;;29.45;39.53
21153;BME280;10734;44.792;20.482;2023-05-29T10:08:18;99901.38;;;29.86;39.50
21153;BME280;10734;44.792;20.482;2023-05-29T10:10:49;99900.47;;;30.05;38.89
21153;BME280;10734;44.792;20.482;2023-05-29T10:13:18;99903.75;;;29.62;38.73
21153;BME280;10734;44.792;20.482;2023-05-29T10:15:49;99892.16;;;29.85;40.65
21153;BME280;10734;44.792;20.482;2023-05-29T10:18:30;99891.94;;;30.00;39.70
21153;BME280;10734;44.792;20.482;2023-05-29T10:21:00;99889.22;;;29.67;39.09
21153;BME280;10734;44.792;20.482;2023-05-29T10:23:28;99892.19;;;29.26;40.09
21153;BME280;10734;44.792;20.482;2023-05-29T10:26:24;99889.88;;;29.69;39.75
21153;BME280;10734;44.792;20.482;2023-05-29T10:34:45;99894.06;;;28.16;41.55
21153;BME280;10734;44.792;20.482;2023-05-29T10:37:32;99888.50;;;28.09;42.15
21153;BME280;10734;44.792;20.482;2023-05-29T10:40:05;99884.03;;;28.08;42.26
21153;BME280;10734;44.792;20.482;2023-05-29T10:42:47;99875.22;;;28.33;42.31
21153;BME280;10734;44.792;20.482;2023-05-29T10:50:41;99874.75;;;28.64;41.23
21153;BME280;10734;44.792;20.482;2023-05-29T10:53:15;99872.00;;;27.88;41.49
21153;BME280;10734;44.792;20.482;2023-05-29T10:55:44;99879.25;;;27.95;43.13
21153;BME280;10734;44.792;20.482;2023-05-29T10:58:14;99865.63;;;28.90;41.18
21153;BME280;10734;44.792;20.482;2023-05-29T11:00:45;99864.41;;;29.85;40.11
21153;BME280;10734;44.792;20.482;2023-05-29T11:03:19;99855.03;;;29.27;39.61
21153;BME280;10734;44.792;20.482;2023-05-29T11:08:34;99860.72;;;27.89;42.18
21153;BME280;10734;44.792;20.482;2023-05-29T11:11:02;99848.66;;;27.69;43.21
21153;BME280;10734;44.792;20.482;2023-05-29T11:18:39;99841.38;;;29.65;40.45
21153;BME280;10734;44.792;20.482;2023-05-29T11:23:59;99839.00;;;28.89;40.58
21153;BME280;10734;44.792;20.482;2023-05-29T11:26:33;99842.13;;;28.66;41.26
21153;BME280;10734;44.792;20.482;2023-05-29T11:29:03;99837.63;;;28.58;41.42
21153;BME280;10734;44.792;20.482;2023-05-29T11:31:32;99835.66;;;28.39;40.58
21153;BME280;10734;44.792;20.482;2023-05-29T11:34:02;99830.84;;;28.13;41.18
21153;BME280;10734;44.792;20.482;2023-05-29T11:36:32;99830.59;;;27.73;42.10
21153;BME280;10734;44.792;20.482;2023-05-29T11:39:00;99831.00;;;27.42;43.59
21153;BME280;10734;44.792;20.482;2023-05-29T11:41:27;99815.81;;;27.59;44.20
21153;BME280;10734;44.792;20.482;2023-05-29T11:44:13;99821.91;;;27.76;42.79
21153;BME280;10734;44.792;20.482;2023-05-29T11:46:40;99811.63;;;28.04;39.92
21153;BME280;10734;44.792;20.482;2023-05-29T11:49:07;99823.69;;;28.38;39.00
21153;BME280;10734;44.792;20.482;2023-05-29T11:51:34;99830.47;;;28.97;38.12
21153;BME280;10734;44.792;20.482;2023-05-29T11:54:01;99816.44;;;29.12;37.80
21153;BME280;10734;44.792;20.482;2023-05-29T11:56:29;99822.59;;;29.47;38.05
21153;BME280;10734;44.792;20.482;2023-05-29T11:58:58;99824.69;;;29.91;37.22
21153;BME280;10734;44.792;20.482;2023-05-29T12:01:26;99818.41;;;30.23;36.83
21153;BME280;10734;44.792;20.482;2023-05-29T12:03:54;99812.59;;;29.66;37.47
21153;BME280;10734;44.792;20.482;2023-05-29T12:06:34;99815.44;;;28.45;38.55
21153;BME280;10734;44.792;20.482;2023-05-29T12:09:02;99812.38;;;28.26;41.03
21153;BME280;10734;44.792;20.482;2023-05-29T12:11:30;99820.59;;;28.61;40.17
21153;BME280;10734;44.792;20.482;2023-05-29T12:13:58;99814.59;;;28.51;40.01
21153;BME280;10734;44.792;20.482;2023-05-29T12:16:27;99821.44;;;28.55;40.70
21153;BME280;10734;44.792;20.482;2023-05-29T12:18:56;99812.03;;;28.49;39.45
21153;BME280;10734;44.792;20.482;2023-05-29T12:21:22;99810.69;;;27.91;40.11
21153;BME280;10734;44.792;20.482;2023-05-29T12:23:56;99823.97;;;27.74;40.20
21153;BME280;10734;44.792;20.482;2023-05-29T12:26:40;99824.19;;;27.16;41.58
21153;BME280;10734;44.792;20.482;2023-05-29T12:29:06;99809.34;;;26.74;42.04
21153;BME280;10734;44.792;20.482;2023-05-29T12:31:33;99810.22;;;26.24;42.68
21153;BME280;10734;44.792;20.482;2023-05-29T12:34:11;99804.81;;;26.01;43.09
21153;BME280;10734;44.792;20.482;2023-05-29T12:36:42;99796.91;;;25.38;43.40
21153;BME280;10734;44.792;20.482;2023-05-29T12:39:09;99790.97;;;24.89;44.36
21153;BME280;10734;44.792;20.482;2023-05-29T12:41:37;99790.25;;;24.72;45.01
21153;BME280;10734;44.792;20.482;2023-05-29T12:44:07;99794.59;;;24.35;45.47
21153;BME280;10734;44.792;20.482;2023-05-29T12:46:37;99802.69;;;24.05;46.31
21153;BME280;10734;44.792;20.482;2023-05-29T12:49:16;99814.97;;;23.95;46.90
21153;BME280;10734;44.792;20.482;2023-05-29T12:51:47;99821.75;;;23.68;48.27
21153;BME280;10734;44.792;20.482;2023-05-29T12:54:15;99826.94;;;23.38;49.89
21153;BME280;10734;44.792;20.482;2023-05-29T12:56:42;99826.47;;;22.94;51.00
21153;BME280;10734;44.792;20.482;2023-05-29T12:59:10;99826.75;;;22.66;51.81
21153;BME280;10734;44.792;20.482;2023-05-29T13:01:37;99834.63;;;22.61;52.23
21153;BME280;10734;44.792;20.482;2023-05-29T13:04:07;99838.38;;;22.52;52.46
21153;BME280;10734;44.792;20.482;2023-05-29T13:06:35;99833.03;;;22.34;53.85
21153;BME280;10734;44.792;20.482;2023-05-29T13:09:02;99825.31;;;22.29;55.04
21153;BME280;10734;44.792;20.482;2023-05-29T13:11:29;99815.84;;;22.15;57.06
21153;BME280;10734;44.792;20.482;2023-05-29T13:13:56;99815.91;;;21.97;60.15
21153;BME280;10734;44.792;20.482;2023-05-29T13:16:23;99810.50;;;21.71;60.48
21153;BME280;10734;44.792;20.482;2023-05-29T13:18:49;99795.03;;;21.62;60.86
21153;BME280;10734;44.792;20.482;2023-05-29T13:21:16;99797.22;;;21.51;62.38
21153;BME280;10734;44.792;20.482;2023-05-29T13:23:43;99798.25;;;21.32;60.38
21153;BME280;10734;44.792;20.482;2023-05-29T13:26:09;99803.03;;;21.03;60.55
21153;BME280;10734;44.792;20.482;2023-05-29T13:28:36;99815.25;;;20.91;60.48
21153;BME280;10734;44.792;20.482;2023-05-29T13:31:03;99823.69;;;20.80;61.29
21153;BME280;10734;44.792;20.482;2023-05-29T13:33:30;99827.00;;;20.66;62.33